Terminal Aerodrome Forecast
Issued by NWS

Home | Current Version | Previous Version | Text Only | Print | Product List | Glossary On
Versions: 1 2 3 4 5 6 7 8 9 10 11 12 13 14 15 16 17 18 19
391
FTUS46 KSTO 191126
TAFRBL
TAF
KRBL 191126Z 1912/2012 15022G30KT P6SM VCSH FEW015 OVC060
     FM192000 15024G34KT 6SM -RA OVC050
     FM200100 15015KT 5SM -RA OVC010=

USA.gov is the U.S. government's official web portal to all federal, state and local government web resources and services.